sensor_id;sensor_type;location;lat;lon;timestamp;pressure;altitude;pressure_sealevel;temperature;humidity
47761;BME280;33524;55.434;38.520;2023-03-21T00:01:01;99980.66;;;1.54;76.47
47761;BME280;33524;55.434;38.520;2023-03-21T00:03:32;99980.47;;;1.58;76.68
47761;BME280;33524;55.434;38.520;2023-03-21T00:06:09;99983.00;;;1.60;76.80
47761;BME280;33524;55.434;38.520;2023-03-21T00:08:37;99977.09;;;1.56;76.42
47761;BME280;33524;55.434;38.520;2023-03-21T00:11:06;99973.47;;;1.60;76.62
47761;BME280;33524;55.434;38.520;2023-03-21T00:13:34;99968.28;;;1.60;76.34
47761;BME280;33524;55.434;38.520;2023-03-21T00:16:07;99971.03;;;1.57;76.87
47761;BME280;33524;55.434;38.520;2023-03-21T00:18:48;99971.91;;;1.56;77.33
47761;BME280;33524;55.434;38.520;2023-03-21T00:21:19;99972.13;;;1.52;78.53
47761;BME280;33524;55.434;38.520;2023-03-21T00:24:06;99969.53;;;1.52;79.21
47761;BME280;33524;55.434;38.520;2023-03-21T00:26:33;99964.34;;;1.52;79.36
47761;BME280;33524;55.434;38.520;2023-03-21T00:29:00;99961.75;;;1.52;79.58
47761;BME280;33524;55.434;38.520;2023-03-21T00:31:27;99951.69;;;1.44;79.67
47761;BME280;33524;55.434;38.520;2023-03-21T00:33:54;99963.56;;;1.50;79.76
47761;BME280;33524;55.434;38.520;2023-03-21T00:36:22;99963.56;;;1.50;79.51
47761;BME280;33524;55.434;38.520;2023-03-21T00:38:51;99960.03;;;1.51;79.06
47761;BME280;33524;55.434;38.520;2023-03-21T00:41:18;99962.53;;;1.54;78.18
47761;BME280;33524;55.434;38.520;2023-03-21T00:44:00;99971.84;;;1.58;77.64
47761;BME280;33524;55.434;38.520;2023-03-21T00:46:27;99971.06;;;1.56;77.68
47761;BME280;33524;55.434;38.520;2023-03-21T00:49:08;99967.81;;;1.51;77.99
47761;BME280;33524;55.434;38.520;2023-03-21T00:51:35;99965.38;;;1.48;78.38
47761;BME280;33524;55.434;38.520;2023-03-21T00:54:04;99955.13;;;1.45;78.81
47761;BME280;33524;55.434;38.520;2023-03-21T00:56:31;99960.38;;;1.43;78.90
47761;BME280;33524;55.434;38.520;2023-03-21T00:58:58;99964.72;;;1.42;79.28
47761;BME280;33524;55.434;38.520;2023-03-21T01:01:24;99959.66;;;1.39;79.19
47761;BME280;33524;55.434;38.520;2023-03-21T01:03:52;99957.03;;;1.41;79.11
47761;BME280;33524;55.434;38.520;2023-03-21T01:06:31;99960.50;;;1.40;79.34
47761;BME280;33524;55.434;38.520;2023-03-21T01:08:58;99949.41;;;1.36;79.61
47761;BME280;33524;55.434;38.520;2023-03-21T01:11:27;99948.56;;;1.36;80.05
47761;BME280;33524;55.434;38.520;2023-03-21T01:13:54;99942.56;;;1.35;80.20
47761;BME280;33524;55.434;38.520;2023-03-21T01:16:33;99941.63;;;1.36;79.97
47761;BME280;33524;55.434;38.520;2023-03-21T01:19:03;99939.97;;;1.35;79.93
47761;BME280;33524;55.434;38.520;2023-03-21T01:21:33;99939.06;;;1.36;80.22
47761;BME280;33524;55.434;38.520;2023-03-21T01:24:00;99935.62;;;1.36;80.03
47761;BME280;33524;55.434;38.520;2023-03-21T01:26:27;99934.84;;;1.34;80.24
47761;BME280;33524;55.434;38.520;2023-03-21T01:28:54;99928.69;;;1.36;80.40
47761;BME280;33524;55.434;38.520;2023-03-21T01:31:21;99935.56;;;1.37;79.95
47761;BME280;33524;55.434;38.520;2023-03-21T01:33:48;99932.13;;;1.37;80.02
47761;BME280;33524;55.434;38.520;2023-03-21T01:36:18;99933.88;;;1.36;80.36
47761;BME280;33524;55.434;38.520;2023-03-21T01:38:50;99928.69;;;1.36;80.20
47761;BME280;33524;55.434;38.520;2023-03-21T01:44:15;99919.34;;;1.32;80.47
47761;BME280;33524;55.434;38.520;2023-03-21T01:49:34;99917.84;;;1.28;80.41
47761;BME280;33524;55.434;38.520;2023-03-21T01:52:08;99918.88;;;1.24;80.76
47761;BME280;33524;55.434;38.520;2023-03-21T01:54:46;99911.97;;;1.23;80.33
47761;BME280;33524;55.434;38.520;2023-03-21T01:57:19;99908.34;;;1.27;79.97
47761;BME280;33524;55.434;38.520;2023-03-21T01:59:50;99898.12;;;1.24;80.07
47761;BME280;33524;55.434;38.520;2023-03-21T02:02:25;99897.16;;;1.27;79.67
47761;BME280;33524;55.434;38.520;2023-03-21T02:04:55;99895.19;;;1.32;79.14
47761;BME280;33524;55.434;38.520;2023-03-21T02:07:28;99889.97;;;1.33;79.28
47761;BME280;33524;55.434;38.520;2023-03-21T02:09:59;99884.78;;;1.33;79.08
47761;BME280;33524;55.434;38.520;2023-03-21T02:12:29;99886.41;;;1.36;79.30
47761;BME280;33524;55.434;38.520;2023-03-21T02:14:56;99883.81;;;1.36;79.38
47761;BME280;33524;55.434;38.520;2023-03-21T02:17:49;99877.84;;;1.34;80.32
47761;BME280;33524;55.434;38.520;2023-03-21T02:20:57;99889.13;;;1.33;81.18
47761;BME280;33524;55.434;38.520;2023-03-21T02:23:21;99883.94;;;1.33;81.26
47761;BME280;33524;55.434;38.520;2023-03-21T02:31:27;99855.41;;;1.14;81.55
47761;BME280;33524;55.434;38.520;2023-03-21T02:37:08;99863.53;;;1.25;80.04
47761;BME280;33524;55.434;38.520;2023-03-21T02:40:14;99868.47;;;1.31;79.85
47761;BME280;33524;55.434;38.520;2023-03-21T02:45:32;99860.38;;;1.18;81.54
47761;BME280;33524;55.434;38.520;2023-03-21T02:48:07;99877.28;;;1.27;81.48
47761;BME280;33524;55.434;38.520;2023-03-21T02:50:53;99878.25;;;1.25;81.66
47761;BME280;33524;55.434;38.520;2023-03-21T02:53:43;99871.19;;;1.28;80.94
47761;BME280;33524;55.434;38.520;2023-03-21T02:56:11;99879.09;;;1.25;80.87
47761;BME280;33524;55.434;38.520;2023-03-21T02:58:40;99869.75;;;1.21;81.11
47761;BME280;33524;55.434;38.520;2023-03-21T03:01:07;99862.91;;;1.20;81.09
47761;BME280;33524;55.434;38.520;2023-03-21T03:03:35;99856.94;;;1.18;81.28
47761;BME280;33524;55.434;38.520;2023-03-21T03:06:13;99862.03;;;1.19;81.11
47761;BME280;33524;55.434;38.520;2023-03-21T03:08:55;99854.28;;;1.19;81.19
47761;BME280;33524;55.434;38.520;2023-03-21T03:11:34;99848.25;;;1.19;81.17
47761;BME280;33524;55.434;38.520;2023-03-21T03:14:39;99855.81;;;1.24;81.12
47761;BME280;33524;55.434;38.520;2023-03-21T03:18:55;99858.50;;;1.22;80.83
47761;BME280;33524;55.434;38.520;2023-03-21T03:20:47;99853.50;;;1.17;81.43
47761;BME280;33524;55.434;38.520;2023-03-21T03:26:29;99849.09;;;1.19;81.64
47761;BME280;33524;55.434;38.520;2023-03-21T03:29:00;99842.97;;;1.22;81.16
47761;BME280;33524;55.434;38.520;2023-03-21T03:31:32;99840.22;;;1.25;81.88
47761;BME280;33524;55.434;38.520;2023-03-21T03:34:05;99847.09;;;1.26;82.00
47761;BME280;33524;55.434;38.520;2023-03-21T03:36:39;99824.38;;;1.12;81.79
47761;BME280;33524;55.434;38.520;2023-03-21T03:39:09;99837.53;;;1.28;81.20
47761;BME280;33524;55.434;38.520;2023-03-21T03:41:50;99834.84;;;1.30;81.59
47761;BME280;33524;55.434;38.520;2023-03-21T03:44:39;99837.31;;;1.33;81.26
47761;BME280;33524;55.434;38.520;2023-03-21T03:47:11;99842.28;;;1.37;80.76
47761;BME280;33524;55.434;38.520;2023-03-21T03:50:03;99838.78;;;1.38;80.62
47761;BME280;33524;55.434;38.520;2023-03-21T03:52:39;99839.03;;;1.32;80.64
47761;BME280;33524;55.434;38.520;2023-03-21T03:55:22;99843.19;;;1.36;80.61
47761;BME280;33524;55.434;38.520;2023-03-21T03:57:53;99831.41;;;1.29;80.81
47761;BME280;33524;55.434;38.520;2023-03-21T04:00:20;99822.34;;;1.19;80.75
47761;BME280;33524;55.434;38.520;2023-03-21T04:02:47;99836.59;;;1.29;80.44
47761;BME280;33524;55.434;38.520;2023-03-21T04:05:14;99835.81;;;1.27;80.31
47761;BME280;33524;55.434;38.520;2023-03-21T04:07:48;99833.22;;;1.27;80.38
47761;BME280;33524;55.434;38.520;2023-03-21T04:10:18;99840.87;;;1.30;80.79
47761;BME280;33524;55.434;38.520;2023-03-21T04:12:47;99842.56;;;1.31;80.89
47761;BME280;33524;55.434;38.520;2023-03-21T04:15:15;99837.53;;;1.28;81.80
47761;BME280;33524;55.434;38.520;2023-03-21T04:17:42;99839.19;;;1.29;82.39
47761;BME280;33524;55.434;38.520;2023-03-21T04:20:11;99832.25;;;1.30;82.53
47761;BME280;33524;55.434;38.520;2023-03-21T04:22:49;99836.38;;;1.34;82.51
47761;BME280;33524;55.434;38.520;2023-03-21T04:25:16;99835.56;;;1.33;82.22
47761;BME280;33524;55.434;38.520;2023-03-21T04:27:59;99837.09;;;1.37;82.42
47761;BME280;33524;55.434;38.520;2023-03-21T04:30:28;99838.50;;;1.45;81.96
47761;BME280;33524;55.434;38.520;2023-03-21T04:32:59;99829.84;;;1.46;82.15
47761;BME280;33524;55.434;38.520;2023-03-21T04:35:27;99828.13;;;1.45;82.63
47761;BME280;33524;55.434;38.520;2023-03-21T04:37:54;99831.38;;;1.50;82.65
47761;BME280;33524;55.434;38.520;2023-03-21T04:40:22;99822.69;;;1.51;81.75
47761;BME280;33524;55.434;38.520;2023-03-21T04:42:50;99819.81;;;1.57;81.60
47761;BME280;33524;55.434;38.520;2023-03-21T04:45:20;99815.41;;;1.59;81.28
47761;BME280;33524;55.434;38.520;2023-03-21T04:47:48;99820.53;;;1.60;81.38
47761;BME280;33524;55.434;38.520;2023-03-21T04:50:15;99813.75;;;1.58;81.91
47761;BME280;33524;55.434;38.520;2023-03-21T04:52:42;99818.94;;;1.58;82.20
47761;BME280;33524;55.434;38.520;2023-03-21T04:55:09;99820.69;;;1.57;82.57
47761;BME280;33524;55.434;38.520;2023-03-21T04:57:38;99819.72;;;1.60;82.23
47761;BME280;33524;55.434;38.520;2023-03-21T05:00:07;99816.34;;;1.58;82.25
47761;BME280;33524;55.434;38.520;2023-03-21T05:02:37;99810.72;;;1.67;81.90
47761;BME280;33524;55.434;38.520;2023-03-21T05:05:05;99817.34;;;1.74;82.27
47761;BME280;33524;55.434;38.520;2023-03-21T05:07:38;99813.13;;;1.72;82.65
47761;BME280;33524;55.434;38.520;2023-03-21T05:10:06;99813.69;;;1.78;82.82
47761;BME280;33524;55.434;38.520;2023-03-21T05:12:34;99819.09;;;1.93;82.38
47761;BME280;33524;55.434;38.520;2023-03-21T05:15:01;99819.81;;;1.96;82.51
47761;BME280;33524;55.434;38.520;2023-03-21T05:17:29;99811.59;;;2.06;82.25
47761;BME280;33524;55.434;38.520;2023-03-21T05:19:56;99811.22;;;2.13;82.04
47761;BME280;33524;55.434;38.520;2023-03-21T05:22:23;99806.66;;;2.18;81.57
47761;BME280;33524;55.434;38.520;2023-03-21T05:24:52;99804.53;;;2.27;81.28
47761;BME280;33524;55.434;38.520;2023-03-21T05:27:24;99806.53;;;2.39;81.23
47761;BME280;33524;55.434;38.520;2023-03-21T05:30:14;99803.59;;;2.47;80.68
47761;BME280;33524;55.434;38.520;2023-03-21T05:32:42;99806.12;;;2.48;80.64
47761;BME280;33524;55.434;38.520;2023-03-21T05:35:10;99798.31;;;2.48;80.34
47761;BME280;33524;55.434;38.520;2023-03-21T05:37:37;99797.56;;;2.46;80.60
47761;BME280;33524;55.434;38.520;2023-03-21T05:40:05;99801.06;;;2.45;80.41
47761;BME280;33524;55.434;38.520;2023-03-21T05:42:33;99796.09;;;2.40;80.47
47761;BME280;33524;55.434;38.520;2023-03-21T05:45:07;99800.22;;;2.45;80.47
47761;BME280;33524;55.434;38.520;2023-03-21T05:47:35;99795.72;;;2.48;80.32
47761;BME280;33524;55.434;38.520;2023-03-21T05:50:03;99801.47;;;2.55;80.33
47761;BME280;33524;55.434;38.520;2023-03-21T05:52:30;99803.00;;;2.59;80.13
47761;BME280;33524;55.434;38.520;2023-03-21T05:54:58;99801.09;;;2.62;80.13
47761;BME280;33524;55.434;38.520;2023-03-21T05:57:25;99798.25;;;2.67;79.80
47761;BME280;33524;55.434;38.520;2023-03-21T05:59:55;99793.59;;;2.74;79.41
47761;BME280;33524;55.434;38.520;2023-03-21T06:02:22;99797.34;;;2.86;78.56
47761;BME280;33524;55.434;38.520;2023-03-21T06:04:52;99798.16;;;3.03;77.42
47761;BME280;33524;55.434;38.520;2023-03-21T06:07:19;99794.66;;;3.05;77.82
47761;BME280;33524;55.434;38.520;2023-03-21T06:09:48;99783.00;;;3.12;77.76
47761;BME280;33524;55.434;38.520;2023-03-21T06:12:15;99785.31;;;3.18;76.86
47761;BME280;33524;55.434;38.520;2023-03-21T06:14:42;99791.94;;;3.23;77.27
47761;BME280;33524;55.434;38.520;2023-03-21T06:17:09;99791.47;;;3.33;76.36
47761;BME280;33524;55.434;38.520;2023-03-21T06:19:39;99787.56;;;3.41;75.45
47761;BME280;33524;55.434;38.520;2023-03-21T06:22:06;99793.53;;;3.43;75.74
47761;BME280;33524;55.434;38.520;2023-03-21T06:24:33;99808.19;;;3.44;75.78
47761;BME280;33524;55.434;38.520;2023-03-21T06:27:00;99803.16;;;3.41;75.29
47761;BME280;33524;55.434;38.520;2023-03-21T06:29:31;99795.78;;;3.50;75.39
47761;BME280;33524;55.434;38.520;2023-03-21T06:31:58;99803.37;;;3.70;74.93
47761;BME280;33524;55.434;38.520;2023-03-21T06:34:26;99793.41;;;3.78;74.91
47761;BME280;33524;55.434;38.520;2023-03-21T06:36:52;99792.97;;;3.86;74.37
47761;BME280;33524;55.434;38.520;2023-03-21T06:39:20;99788.03;;;3.81;74.00
47761;BME280;33524;55.434;38.520;2023-03-21T06:41:47;99787.34;;;3.78;73.97
47761;BME280;33524;55.434;38.520;2023-03-21T06:44:14;99783.22;;;3.74;73.90
47761;BME280;33524;55.434;38.520;2023-03-21T06:46:42;99767.41;;;3.78;73.29
47761;BME280;33524;55.434;38.520;2023-03-21T06:49:10;99772.00;;;3.89;73.47
47761;BME280;33524;55.434;38.520;2023-03-21T06:51:37;99770.72;;;3.96;72.95
47761;BME280;33524;55.434;38.520;2023-03-21T06:54:04;99765.59;;;3.95;72.50
47761;BME280;33524;55.434;38.520;2023-03-21T06:56:32;99765.94;;;4.04;71.77
47761;BME280;33524;55.434;38.520;2023-03-21T06:59:01;99765.03;;;4.06;71.43
47761;BME280;33524;55.434;38.520;2023-03-21T07:01:31;99763.25;;;4.06;71.11
47761;BME280;33524;55.434;38.520;2023-03-21T07:03:58;99761.91;;;3.99;70.93
47761;BME280;33524;55.434;38.520;2023-03-21T07:06:26;99764.28;;;3.88;71.53
47761;BME280;33524;55.434;38.520;2023-03-21T07:08:54;99763.53;;;3.86;71.33
47761;BME280;33524;55.434;38.520;2023-03-21T07:11:22;99757.63;;;3.82;71.78
47761;BME280;33524;55.434;38.520;2023-03-21T07:13:50;99756.41;;;3.89;71.57
47761;BME280;33524;55.434;38.520;2023-03-21T07:16:17;99761.53;;;3.91;71.46
47761;BME280;33524;55.434;38.520;2023-03-21T07:18:44;99758.06;;;3.90;71.20
47761;BME280;33524;55.434;38.520;2023-03-21T07:21:12;99765.28;;;3.85;71.29
47761;BME280;33524;55.434;38.520;2023-03-21T07:23:39;99757.00;;;3.78;71.07
47761;BME280;33524;55.434;38.520;2023-03-21T07:26:06;99758.66;;;3.95;70.95
47761;BME280;33524;55.434;38.520;2023-03-21T07:28:33;99760.88;;;4.17;69.88
47761;BME280;33524;55.434;38.520;2023-03-21T07:31:03;99756.69;;;4.31;69.63
47761;BME280;33524;55.434;38.520;2023-03-21T07:33:31;99763.81;;;4.27;69.29
47761;BME280;33524;55.434;38.520;2023-03-21T07:36:00;99755.75;;;4.32;68.67
47761;BME280;33524;55.434;38.520;2023-03-21T07:38:27;99755.78;;;4.46;69.09
47761;BME280;33524;55.434;38.520;2023-03-21T07:40:58;99743.66;;;4.61;68.44
47761;BME280;33524;55.434;38.520;2023-03-21T07:43:28;99745.56;;;4.88;66.80
47761;BME280;33524;55.434;38.520;2023-03-21T07:45:56;99746.72;;;5.12;66.98
47761;BME280;33524;55.434;38.520;2023-03-21T07:48:25;99736.56;;;5.36;65.66
47761;BME280;33524;55.434;38.520;2023-03-21T07:50:52;99741.00;;;5.63;64.45
47761;BME280;33524;55.434;38.520;2023-03-21T07:53:19;99745.09;;;5.67;63.59
47761;BME280;33524;55.434;38.520;2023-03-21T07:55:51;99738.91;;;5.82;62.69
47761;BME280;33524;55.434;38.520;2023-03-21T07:58:18;99739.12;;;5.79;61.90
47761;BME280;33524;55.434;38.520;2023-03-21T08:00:44;99735.84;;;5.76;62.75
47761;BME280;33524;55.434;38.520;2023-03-21T08:03:11;99738.09;;;5.82;61.99
47761;BME280;33524;55.434;38.520;2023-03-21T08:05:38;99728.81;;;5.91;61.63
47761;BME280;33524;55.434;38.520;2023-03-21T08:08:06;99744.50;;;6.18;60.72
47761;BME280;33524;55.434;38.520;2023-03-21T08:10:33;99735.66;;;6.20;60.31
47761;BME280;33524;55.434;38.520;2023-03-21T08:13:01;99737.19;;;6.10;60.38
47761;BME280;33524;55.434;38.520;2023-03-21T08:15:28;99744.34;;;6.21;59.94
47761;BME280;33524;55.434;38.520;2023-03-21T08:17:55;99742.25;;;6.53;59.28
47761;BME280;33524;55.434;38.520;2023-03-21T08:20:21;99727.91;;;7.36;56.82
47761;BME280;33524;55.434;38.520;2023-03-21T08:22:49;99732.44;;;7.83;55.05
47761;BME280;33524;55.434;38.520;2023-03-21T08:25:18;99726.19;;;8.21;53.26
47761;BME280;33524;55.434;38.520;2023-03-21T08:27:45;99722.12;;;8.17;52.57
47761;BME280;33524;55.434;38.520;2023-03-21T08:30:14;99731.53;;;8.20;52.65
47761;BME280;33524;55.434;38.520;2023-03-21T08:32:42;99729.19;;;8.52;51.97
47761;BME280;33524;55.434;38.520;2023-03-21T08:35:11;99739.44;;;8.31;51.96
47761;BME280;33524;55.434;38.520;2023-03-21T08:37:39;99744.75;;;8.78;50.56
47761;BME280;33524;55.434;38.520;2023-03-21T08:40:09;99748.53;;;8.62;50.08
47761;BME280;33524;55.434;38.520;2023-03-21T08:42:37;99743.34;;;8.25;51.75
47761;BME280;33524;55.434;38.520;2023-03-21T08:45:05;99740.00;;;7.99;52.57
47761;BME280;33524;55.434;38.520;2023-03-21T08:47:32;99734.37;;;7.93;53.22
47761;BME280;33524;55.434;38.520;2023-03-21T08:49:59;99736.44;;;8.00;52.48
47761;BME280;33524;55.434;38.520;2023-03-21T08:52:26;99736.41;;;7.76;52.63
47761;BME280;33524;55.434;38.520;2023-03-21T08:54:53;99736.84;;;7.70;53.53
47761;BME280;33524;55.434;38.520;2023-03-21T08:57:20;99732.06;;;7.64;53.81
47761;BME280;33524;55.434;38.520;2023-03-21T08:59:47;99731.12;;;7.65;54.00
47761;BME280;33524;55.434;38.520;2023-03-21T09:02:15;99726.31;;;7.59;54.11
47761;BME280;33524;55.434;38.520;2023-03-21T09:04:42;99716.34;;;7.64;53.94
47761;BME280;33524;55.434;38.520;2023-03-21T09:07:10;99724.44;;;7.48;54.03
47761;BME280;33524;55.434;38.520;2023-03-21T09:09:40;99700.75;;;7.13;54.45
47761;BME280;33524;55.434;38.520;2023-03-21T09:12:07;99729.56;;;7.50;54.16
47761;BME280;33524;55.434;38.520;2023-03-21T09:14:34;99719.25;;;7.72;53.68
47761;BME280;33524;55.434;38.520;2023-03-21T09:17:01;99728.84;;;7.84;52.98
47761;BME280;33524;55.434;38.520;2023-03-21T09:19:28;99728.69;;;7.99;52.80
47761;BME280;33524;55.434;38.520;2023-03-21T09:21:55;99721.00;;;7.84;52.91
47761;BME280;33524;55.434;38.520;2023-03-21T09:24:23;99722.78;;;7.84;52.60
47761;BME280;33524;55.434;38.520;2023-03-21T09:26:50;99722.59;;;7.74;53.63
47761;BME280;33524;55.434;38.520;2023-03-21T09:29:17;99722.44;;;7.88;53.81
47761;BME280;33524;55.434;38.520;2023-03-21T09:31:46;99720.66;;;7.89;54.25
47761;BME280;33524;55.434;38.520;2023-03-21T09:34:13;99715.59;;;7.99;53.63
47761;BME280;33524;55.434;38.520;2023-03-21T09:36:41;99716.03;;;7.93;53.46
47761;BME280;33524;55.434;38.520;2023-03-21T09:39:10;99710.84;;;8.04;53.62
47761;BME280;33524;55.434;38.520;2023-03-21T09:45:04;99717.22;;;8.13;53.62
47761;BME280;33524;55.434;38.520;2023-03-21T09:47:40;99714.75;;;8.46;53.32
47761;BME280;33524;55.434;38.520;2023-03-21T09:50:23;99708.03;;;8.66;52.63
47761;BME280;33524;55.434;38.520;2023-03-21T09:52:56;99705.91;;;8.94;51.06
47761;BME280;33524;55.434;38.520;2023-03-21T09:55:26;99708.19;;;9.21;49.62
47761;BME280;33524;55.434;38.520;2023-03-21T09:58:33;99711.19;;;9.39;48.77
47761;BME280;33524;55.434;38.520;2023-03-21T10:00:50;99709.72;;;9.24;49.41
47761;BME280;33524;55.434;38.520;2023-03-21T10:03:26;99707.81;;;9.26;49.34
47761;BME280;33524;55.434;38.520;2023-03-21T10:05:57;99710.34;;;9.27;49.58
47761;BME280;33524;55.434;38.520;2023-03-21T10:08:31;99712.22;;;9.03;50.91
47761;BME280;33524;55.434;38.520;2023-03-21T10:11:09;99715.19;;;8.76;51.73
47761;BME280;33524;55.434;38.520;2023-03-21T10:13:41;99702.06;;;8.64;51.83
47761;BME280;33524;55.434;38.520;2023-03-21T10:16:31;99709.56;;;8.69;51.30
47761;BME280;33524;55.434;38.520;2023-03-21T10:19:03;99697.50;;;8.55;51.19
47761;BME280;33524;55.434;38.520;2023-03-21T10:21:30;99699.56;;;8.63;51.19
47761;BME280;33524;55.434;38.520;2023-03-21T10:24:22;99701.19;;;8.64;52.18
47761;BME280;33524;55.434;38.520;2023-03-21T10:26:51;99691.69;;;8.74;52.61
47761;BME280;33524;55.434;38.520;2023-03-21T10:29:21;99693.12;;;8.78;52.29
47761;BME280;33524;55.434;38.520;2023-03-21T10:31:50;99688.03;;;8.88;52.36
47761;BME280;33524;55.434;38.520;2023-03-21T10:34:38;99690.22;;;9.05;52.06
47761;BME280;33524;55.434;38.520;2023-03-21T10:37:07;99685.78;;;9.28;51.27
47761;BME280;33524;55.434;38.520;2023-03-21T10:39:36;99684.03;;;9.73;49.95
47761;BME280;33524;55.434;38.520;2023-03-21T10:42:03;99691.69;;;10.08;48.96
47761;BME280;33524;55.434;38.520;2023-03-21T10:44:32;99681.28;;;10.81;47.49
47761;BME280;33524;55.434;38.520;2023-03-21T10:47:05;99679.09;;;11.47;44.96
47761;BME280;33524;55.434;38.520;2023-03-21T10:49:33;99681.87;;;11.56;44.51
47761;BME280;33524;55.434;38.520;2023-03-21T10:52:20;99675.81;;;11.84;43.50
47761;BME280;33524;55.434;38.520;2023-03-21T10:54:48;99676.41;;;11.38;44.81
47761;BME280;33524;55.434;38.520;2023-03-21T10:57:19;99682.16;;;11.12;45.60
47761;BME280;33524;55.434;38.520;2023-03-21T10:59:53;99679.88;;;11.38;44.84
47761;BME280;33524;55.434;38.520;2023-03-21T11:02:31;99680.94;;;11.26;44.61
47761;BME280;33524;55.434;38.520;2023-03-21T11:05:04;99679.47;;;11.02;44.99
47761;BME280;33524;55.434;38.520;2023-03-21T11:07:32;99681.09;;;10.73;47.10
47761;BME280;33524;55.434;38.520;2023-03-21T11:10:12;99683.50;;;10.76;45.57
47761;BME280;33524;55.434;38.520;2023-03-21T11:12:55;99676.00;;;10.18;47.83
47761;BME280;33524;55.434;38.520;2023-03-21T11:16:02;99677.00;;;9.73;49.23
47761;BME280;33524;55.434;38.520;2023-03-21T11:18:30;99673.69;;;9.48;49.31
47761;BME280;33524;55.434;38.520;2023-03-21T11:21:04;99669.41;;;9.47;48.92
47761;BME280;33524;55.434;38.520;2023-03-21T11:23:34;99672.28;;;9.33;49.53
47761;BME280;33524;55.434;38.520;2023-03-21T11:26:08;99657.72;;;9.40;49.27
47761;BME280;33524;55.434;38.520;2023-03-21T11:28:38;99660.19;;;9.64;49.02
47761;BME280;33524;55.434;38.520;2023-03-21T11:31:06;99659.13;;;9.99;48.78
47761;BME280;33524;55.434;38.520;2023-03-21T11:33:37;99662.59;;;10.32;48.20
47761;BME280;33524;55.434;38.520;2023-03-21T11:36:26;99653.88;;;10.32;47.87
47761;BME280;33524;55.434;38.520;2023-03-21T11:39:02;99651.44;;;10.40;47.53
47761;BME280;33524;55.434;38.520;2023-03-21T11:41:31;99646.62;;;10.97;47.45
47761;BME280;33524;55.434;38.520;2023-03-21T11:44:00;99646.09;;;11.43;46.01
47761;BME280;33524;55.434;38.520;2023-03-21T11:46:29;99640.09;;;11.91;44.54
47761;BME280;33524;55.434;38.520;2023-03-21T11:48:58;99640.00;;;12.69;42.63
47761;BME280;33524;55.434;38.520;2023-03-21T11:54:24;99626.72;;;11.74;44.59
47761;BME280;33524;55.434;38.520;2023-03-21T11:57:13;99630.44;;;11.42;44.50
47761;BME280;33524;55.434;38.520;2023-03-21T11:59:53;99600.72;;;11.20;44.35
47761;BME280;33524;55.434;38.520;2023-03-21T12:02:49;99626.59;;;10.54;45.91
47761;BME280;33524;55.434;38.520;2023-03-21T12:05:34;99606.25;;;9.93;47.59
47761;BME280;33524;55.434;38.520;2023-03-21T12:08:12;99624.34;;;9.75;48.41
47761;BME280;33524;55.434;38.520;2023-03-21T12:10:54;99623.06;;;9.69;49.00
47761;BME280;33524;55.434;38.520;2023-03-21T12:16:35;99617.59;;;9.93;48.69
47761;BME280;33524;55.434;38.520;2023-03-21T12:19:39;99613.16;;;9.94;48.65
47761;BME280;33524;55.434;38.520;2023-03-21T12:25:10;99607.63;;;10.29;48.67
47761;BME280;33524;55.434;38.520;2023-03-21T12:28:03;99600.00;;;11.08;47.63
47761;BME280;33524;55.434;38.520;2023-03-21T12:33:44;99601.91;;;12.35;43.68
47761;BME280;33524;55.434;38.520;2023-03-21T12:36:42;99591.81;;;12.01;43.36
47761;BME280;33524;55.434;38.520;2023-03-21T12:39:26;99586.88;;;12.45;42.53
47761;BME280;33524;55.434;38.520;2023-03-21T12:42:08;99589.59;;;13.00;42.41
47761;BME280;33524;55.434;38.520;2023-03-21T12:44:44;99591.69;;;13.52;41.18
47761;BME280;33524;55.434;38.520;2023-03-21T12:47:16;99585.62;;;13.14;41.24
47761;BME280;33524;55.434;38.520;2023-03-21T12:49:48;99588.16;;;12.31;42.22
47761;BME280;33524;55.434;38.520;2023-03-21T12:52:24;99574.09;;;12.50;43.10
47761;BME280;33524;55.434;38.520;2023-03-21T12:55:15;99573.16;;;12.79;42.44
47761;BME280;33524;55.434;38.520;2023-03-21T12:58:00;99567.19;;;14.04;39.20
47761;BME280;33524;55.434;38.520;2023-03-21T13:00:50;99558.03;;;14.68;38.33
47761;BME280;33524;55.434;38.520;2023-03-21T13:03:22;99563.50;;;15.09;37.29
47761;BME280;33524;55.434;38.520;2023-03-21T13:06:05;99561.47;;;15.87;34.93
47761;BME280;33524;55.434;38.520;2023-03-21T13:08:37;99553.88;;;15.84;35.71
47761;BME280;33524;55.434;38.520;2023-03-21T13:11:05;99558.50;;;16.14;33.81
47761;BME280;33524;55.434;38.520;2023-03-21T13:13:53;99554.66;;;16.25;33.14
47761;BME280;33524;55.434;38.520;2023-03-21T13:16:29;99552.00;;;14.32;35.80
47761;BME280;33524;55.434;38.520;2023-03-21T13:19:09;99556.41;;;12.23;40.33
47761;BME280;33524;55.434;38.520;2023-03-21T13:21:53;99566.28;;;12.11;42.43
47761;BME280;33524;55.434;38.520;2023-03-21T13:24:26;99557.09;;;13.81;38.09
47761;BME280;33524;55.434;38.520;2023-03-21T13:27:01;99560.22;;;14.55;37.77
47761;BME280;33524;55.434;38.520;2023-03-21T13:29:49;99557.25;;;14.50;38.04
47761;BME280;33524;55.434;38.520;2023-03-21T13:32:31;99555.94;;;14.80;36.49
47761;BME280;33524;55.434;38.520;2023-03-21T13:35:10;99556.28;;;15.36;35.60
47761;BME280;33524;55.434;38.520;2023-03-21T13:37:41;99547.06;;;15.65;35.21
47761;BME280;33524;55.434;38.520;2023-03-21T13:40:22;99546.19;;;15.64;33.79
47761;BME280;33524;55.434;38.520;2023-03-21T13:42:53;99544.44;;;15.73;34.42
47761;BME280;33524;55.434;38.520;2023-03-21T13:45:27;99534.81;;;15.88;34.07
47761;BME280;33524;55.434;38.520;2023-03-21T13:47:59;99545.06;;;16.08;32.69
47761;BME280;33524;55.434;38.520;2023-03-21T13:50:33;99527.34;;;16.17;33.39
47761;BME280;33524;55.434;38.520;2023-03-21T13:53:18;99533.47;;;16.01;33.14
47761;BME280;33524;55.434;38.520;2023-03-21T13:55:56;99527.34;;;16.17;33.18
47761;BME280;33524;55.434;38.520;2023-03-21T13:58:33;99527.69;;;15.89;32.78
47761;BME280;33524;55.434;38.520;2023-03-21T14:01:11;99522.53;;;15.63;33.87